Flight Track Log - Related Links

Times and Time Zones

All times are in EDT time to prevent confusion due to time zone crossing. See the DCM6437 flight status page for this flight to view local times or setup timezone preferences in your user account.

Time Position Orientation Groundspeed Altitude Reporting Facility
EDT Latitude Longitude Course Direction KTS MPH feet Rate Location/Type
Sat 12:18:15 PM 43.7258 -111.1483 180° South 176 203 10,600  Level Salt Lake Center
Sat 12:19:17 PM 43.6675 -111.1478 180° South 184 212 12,100 1,171 Climbing Salt Lake Center
Sat 12:20:18 PM 43.6156 -111.1486 181° South 189 217 13,000 1,073 Climbing Salt Lake Center
Sat 12:21:20 PM 43.5547 -111.1514 182° South 194 223 14,300 1,073 Climbing Salt Lake Center
Sat 12:22:21 PM 43.5044 -111.1728 197° South 193 222 15,200 913 Climbing Salt Lake Center
Sat 12:24:24 PM 43.3944 -111.2083 193° South 200 230 17,100 848 Climbing Salt Lake Center
Sat 12:25:25 PM 43.3400 -111.2261 193° South 201 231 17,800 829 Climbing Salt Lake Center
Sat 12:26:27 PM 43.2861 -111.2431 193° South 200 230 18,800 927 Climbing Salt Lake Center
Sat 12:27:28 PM 43.2336 -111.2608 194° South 194 223 19,700 927 Climbing Salt Lake Center
Sat 12:28:30 PM 43.1792 -111.2778 193° South 193 222 20,700 927 Climbing Salt Lake Center
Sat 12:29:31 PM 43.1219 -111.2961 193° South 190 219 21,600 634 Climbing Salt Lake Center
Sat 12:30:33 PM 43.0711 -111.3097 191° South 192 221 22,000 195 Climbing Salt Lake Center
Sat 12:31:34 PM 43.0008 -111.3322 193° South 230 265 22,000  Level Salt Lake Center
Sat 12:32:36 PM 42.9378 -111.3494 191° South 238 274 22,000  Level Salt Lake Center
Sat 12:33:37 PM 42.8717 -111.3692 192° South 249 287 22,000  Level Salt Lake Center
Sat 12:34:39 PM 42.7947 -111.3944 194° South 252 290 22,000  Level Salt Lake Center
Sat 12:35:40 PM 42.7278 -111.4164 194° South 256 295 22,000  Level Salt Lake Center
Sat 12:36:42 PM 42.6564 -111.4406 194° South 257 296 22,000  Level Salt Lake Center
Sat 12:37:43 PM 42.5869 -111.4608 192° South 255 293 22,000  Level Salt Lake Center
Sat 12:38:45 PM 42.5175 -111.4808 192° South 255 293 22,000  Level Salt Lake Center
Sat 12:39:46 PM 42.4342 -111.5058 192° South 256 295 22,000  Level Salt Lake Center
Sat 12:40:47 PM 42.3647 -111.5258 192° South 255 293 22,000  Level Salt Lake Center
Sat 12:41:49 PM 42.2953 -111.5469 193° South 256 295 22,000  Level Salt Lake Center
Sat 12:42:50 PM 42.2267 -111.5692 193° South 254 292 22,000  Level Salt Lake Center
Sat 12:43:52 PM 42.1597 -111.5975 197° South 251 289 22,000  Level Salt Lake Center
Sat 12:44:53 PM 42.1003 -111.6464 211° Southwest 250 288 22,000  Level Salt Lake Center
Sat 12:45:55 PM 42.0389 -111.6906 208° Southwest 251 289 22,000  Level Salt Lake Center
Sat 12:46:56 PM 41.9789 -111.7317 207° Southwest 245 282 22,000  Level Salt Lake Center
Sat 12:47:57 PM 41.9197 -111.7758 209° Southwest 243 280 22,000  Level Salt Lake Center
Sat 12:48:59 PM 41.8478 -111.8314 210° Southwest 249 287 22,000  Level Salt Lake Center
Sat 12:50:00 PM 41.7903 -111.8806 213° Southwest 245 282 22,000  Level Salt Lake Center
Sat 12:51:02 PM 41.7333 -111.9289 212° Southwest 243 280 22,000  Level Salt Lake Center
Sat 12:51:28 PM 41.7083 -111.9442 205° Southwest 243 280 22,000 -98 Level Salt Lake Center
Sat 12:52:03 PM 41.6764 -111.9767 217° Southwest 243 280 21,900 -706 Descending Salt Lake Center
Sat 12:52:53 PM 41.6233 -112.0164 209° Southwest 254 292 21,000 -811 Descending Salt Lake Center
Sat 12:53:54 PM 41.5536 -112.0461 198° South 271 312 20,400 -1,164 Descending Salt Lake Center
Sat 12:55:07 PM 41.4567 -112.0564 185° South 286 329 18,400 -1,805 Descending Salt Lake Center
Sat 12:56:07 PM 41.3747 -112.0672 186° South 301 346 16,400 -1,587 Descending Salt Lake Center
Sat 12:57:08 PM 41.2983 -112.0392 165° South 288 331 15,200 -1,113 Descending Salt Lake Center
Sat 12:58:11 PM 41.2306 -111.9858 149° Southeast 274 315 14,100 -1,357 Descending Salt Lake Center
Sat 12:59:03 PM 41.1703 -111.9461 154° Southeast 282 325 12,600 -1,858 Descending Salt Lake Center
Sat 01:00:04 PM 41.0908 -111.9136 163° South 297 342 10,600 -1,574 Descending Salt Lake Center
Sat 01:01:05 PM 41.0108 -111.8897 167° South 293 337 9,400 -1,131 Descending Salt Lake Center
Sat 01:02:06 PM 40.9325 -111.8853 178° South 273 314 8,300 -1,041 Descending Salt Lake Center
Sat 01:03:06 PM 40.8578 -111.8994 188° South 259 298 7,300 -586 Descending Salt Lake Center
Sat 01:04:19 PM 40.7786 -111.9106 186° South 242 278 7,000 -148 Descending Salt Lake Center
Sat 01:05:08 PM 40.7247 -111.9025 174° South 227 261 7,000 -155 Level Salt Lake Center
Sat 01:06:15 PM 40.6550 -111.8981 177° South 227 261 6,700 -267 Descending Salt Lake Center
Sat 01:07:23 PM 40.5858 -111.9083 186° South 238 274 6,400 -265 Descending Salt Lake Center

Login

Don't have an account? Register now (free) for customized features, flight alerts, and more!